Airfield :
LOGIN :

Register | Disclaimer

   EN    FR    IT 

 










Legend :    VFR   Marginal VFR   IFR   Intensive IFR   Very Intensive IFR
Visi :
Ceiling :
>= 8 km
>= 3000ft
5 to 8 km
1000 to 3000 ft
1500m to 5 km
500 to 1000 ft
800 to 1500m
200 to 500 ft
< 800m
< 200 ft
Symbols :   Thunderstorms  Fog  Heavy snow  Heavy precipitations  Wind > 20 kt
SIGMETs :     Misc.  Thunderstorms  Icing  Turbulence  Mountain Waves  Volcanic Ashes






- Airport Elevation : 1411 ft
- IATA code : GVA


LSGG - Genève Cointrin

CURRENT METAR :
  • 150650Z 11005KT 070V150 5000 FEW005 BKN080 14/13 Q1008 NOSIG

EXPIRED METARs :
  • 150620Z 12004KT 5000 RA FEW060 OVC080 13/13 Q1008 NOSIG
  • 150550Z 17003KT 130V210 7000 -RA FEW060 OVC080 13/13 Q1009 NOSIG
  • 150520Z 27007KT 6000 +RA FEW060 OVC080 13/13 Q1009 NOSIG
  • 150450Z 24004KT 200V300 6000 RA FEW060 BKN080 13/13 Q1008 NOSIG
  • 150420Z VRB03KT 9999 -RA FEW080 BKN090 13/13 Q1008 NOSIG
  • 150350Z VRB01KT 9999 -RA FEW060 BKN090 13/12 Q1008 NOSIG

TAF TAF LSGG
Valid from the 15 at 06:00 until the 16 at 12:00 UTC


150525Z 1506/1612 VRB03KT 9999 RA FEW025 SCT045 BKN060 TX15/1510Z TN13/1506Z TN08/1605Z
BECMG 1510/1512 25015G25KT
BECMG 1518/1521 23005KT NSW SCT040
PROB40
TEMPO 1523/1607 4000 BCFG
ATIS : +41 22 417 40 81



MET'MAP, your aeronautical weather chart ! - Copyright ORBIFLY December 2007 - Disclaimer

ORBIFLY MET'MAP TEAM :

Programming & Development : Alexandra Zaïnal
Concept & Development : Baudouin d'Aumeries
Co-Development & Prog : Marc-Olivier Méhu
Technical & hardware support : Manuel Goepfert

Contact : metmap@orbifly.com




SOURCES & CREDITS :

   NOAA